createdAt,value
2024-02-07T00:01:54.512Z,100.00
2024-02-07T00:04:21.172Z,100.00
2024-02-07T00:06:47.753Z,100.00
2024-02-07T00:09:14.257Z,100.00
2024-02-07T00:11:40.733Z,100.00
2024-02-07T00:14:09.054Z,100.00
2024-02-07T00:16:35.655Z,100.00
2024-02-07T00:19:02.281Z,100.00
2024-02-07T00:21:28.934Z,100.00
2024-02-07T00:23:55.436Z,100.00
2024-02-07T00:26:22.004Z,100.00
2024-02-07T00:28:49.601Z,100.00
2024-02-07T00:31:16.424Z,100.00
2024-02-07T00:33:42.917Z,100.00
2024-02-07T00:36:09.472Z,100.00
2024-02-07T00:38:36.006Z,100.00
2024-02-07T00:41:02.561Z,100.00
2024-02-07T00:43:29.174Z,100.00
2024-02-07T00:45:56.299Z,100.00
2024-02-07T00:48:22.868Z,100.00
2024-02-07T00:50:49.311Z,100.00
2024-02-07T00:53:15.790Z,100.00
2024-02-07T00:55:42.380Z,100.00
2024-02-07T00:58:10.679Z,100.00
2024-02-07T01:00:37.281Z,100.00
2024-02-07T01:03:03.985Z,100.00
2024-02-07T01:05:30.515Z,100.00
2024-02-07T01:07:57.087Z,100.00
2024-02-07T01:10:23.599Z,100.00
2024-02-07T01:12:50.121Z,100.00
2024-02-07T01:15:16.765Z,100.00
2024-02-07T01:17:43.368Z,100.00
2024-02-07T01:20:11.862Z,100.00
2024-02-07T01:22:39.088Z,100.00
2024-02-07T01:25:10.047Z,100.00
2024-02-07T01:27:37.782Z,100.00
2024-02-07T01:30:05.766Z,100.00
2024-02-07T01:32:32.260Z,100.00
2024-02-07T01:34:59.347Z,100.00
2024-02-07T01:37:26.386Z,100.00
2024-02-07T01:39:53.107Z,100.00
2024-02-07T01:42:19.759Z,100.00
2024-02-07T01:44:46.395Z,100.00
2024-02-07T01:47:14.387Z,100.00
2024-02-07T01:49:52.686Z,100.00
2024-02-07T01:52:23.633Z,100.00
2024-02-07T01:54:51.073Z,100.00
2024-02-07T01:57:18.376Z,100.00
2024-02-07T01:59:45.502Z,100.00
2024-02-07T02:02:13.165Z,100.00
2024-02-07T02:04:39.867Z,100.00
2024-02-07T02:07:06.465Z,100.00
2024-02-07T02:09:33.019Z,100.00
2024-02-07T02:12:00.401Z,100.00
2024-02-07T02:14:27.823Z,100.00
2024-02-07T02:16:55.502Z,100.00
2024-02-07T02:19:22.444Z,100.00
2024-02-07T02:22:26.154Z,100.00
2024-02-07T02:25:04.889Z,100.00
2024-02-07T02:27:46.904Z,100.00
2024-02-07T02:30:21.142Z,100.00
2024-02-07T02:32:50.834Z,100.00
2024-02-07T02:35:19.785Z,100.00
2024-02-07T02:37:47.364Z,100.00
2024-02-07T02:40:14.069Z,100.00
2024-02-07T02:42:40.922Z,100.00
2024-02-07T02:45:08.154Z,100.00
2024-02-07T02:47:34.738Z,100.00
2024-02-07T02:50:02.393Z,100.00
2024-02-07T02:52:30.317Z,100.00
2024-02-07T02:54:57.940Z,100.00
2024-02-07T02:57:24.904Z,100.00
2024-02-07T02:59:52.017Z,100.00
2024-02-07T03:02:21.351Z,100.00
2024-02-07T03:04:51.125Z,99.92
2024-02-07T03:07:36.622Z,99.73
2024-02-07T03:10:06.152Z,99.93
2024-02-07T03:12:37.090Z,99.65
2024-02-07T03:15:04.017Z,99.36
2024-02-07T03:17:30.579Z,99.56
2024-02-07T03:19:57.175Z,99.34
2024-02-07T03:22:23.846Z,99.28
2024-02-07T03:24:56.783Z,99.38
2024-02-07T03:27:24.107Z,99.28
2024-02-07T03:29:50.866Z,99.46
2024-02-07T03:32:19.728Z,99.24
2024-02-07T03:34:46.282Z,99.00
2024-02-07T03:37:12.830Z,99.01
2024-02-07T03:39:39.363Z,99.01
2024-02-07T03:42:07.911Z,99.03
2024-02-07T03:44:34.393Z,99.08
2024-02-07T03:47:00.956Z,98.94
2024-02-07T03:49:27.654Z,98.81
2024-02-07T03:51:54.220Z,99.10
2024-02-07T03:54:21.409Z,98.53
2024-02-07T03:56:47.873Z,98.29
2024-02-07T03:59:14.417Z,98.57
2024-02-07T04:01:41.190Z,98.60
2024-02-07T04:04:09.684Z,98.72
2024-02-07T04:06:37.701Z,98.28
2024-02-07T04:09:07.559Z,98.22
2024-02-07T04:11:34.212Z,97.92
2024-02-07T04:14:00.701Z,98.50
2024-02-07T04:16:45.859Z,98.19
2024-02-07T04:19:30.888Z,98.19
2024-02-07T04:22:16.208Z,98.33
2024-02-07T04:25:01.112Z,97.85
2024-02-07T04:27:46.137Z,98.25
2024-02-07T04:30:31.520Z,97.88
2024-02-07T04:33:16.476Z,97.81
2024-02-07T04:36:02.002Z,97.63
2024-02-07T04:38:47.245Z,97.51
2024-02-07T04:41:32.121Z,97.55
2024-02-07T04:44:17.058Z,97.65
2024-02-07T04:47:02.185Z,97.78
2024-02-07T04:49:47.629Z,97.65
2024-02-07T04:52:33.529Z,97.17
2024-02-07T04:55:18.695Z,97.47
2024-02-07T04:58:03.659Z,97.75
2024-02-07T05:00:49.302Z,97.73
2024-02-07T05:03:34.530Z,97.79
2024-02-07T05:06:19.870Z,97.63
2024-02-07T05:09:05.219Z,97.43
2024-02-07T05:11:50.097Z,97.71
2024-02-07T05:14:34.956Z,97.50
2024-02-07T05:17:01.462Z,97.23
2024-02-07T05:19:28.093Z,97.24
2024-02-07T05:21:54.831Z,97.50
2024-02-07T05:24:21.328Z,97.49
2024-02-07T05:26:47.942Z,97.34
2024-02-07T05:29:18.077Z,97.14
2024-02-07T05:31:44.881Z,97.05
2024-02-07T05:34:13.191Z,96.67
2024-02-07T05:36:39.820Z,96.52
2024-02-07T05:39:06.468Z,96.51
2024-02-07T05:41:33.015Z,96.52
2024-02-07T05:43:59.486Z,96.30
2024-02-07T05:46:26.206Z,96.08
2024-02-07T05:48:52.687Z,96.48
2024-02-07T05:51:23.231Z,96.61
2024-02-07T05:53:49.941Z,96.11
2024-02-07T05:56:16.741Z,96.46
2024-02-07T05:58:43.570Z,96.00
2024-02-07T06:01:10.445Z,95.89
2024-02-07T06:03:37.018Z,96.63
2024-02-07T06:06:05.463Z,96.02
2024-02-07T06:08:32.420Z,96.30
2024-02-07T06:11:00.746Z,95.95
2024-02-07T06:13:27.693Z,96.25
2024-02-07T06:15:54.344Z,96.07
2024-02-07T06:18:20.807Z,96.30
2024-02-07T06:20:47.455Z,95.88
2024-02-07T06:23:14.004Z,95.57
2024-02-07T06:25:41.158Z,95.15
2024-02-07T06:28:07.686Z,95.18
2024-02-07T06:30:34.260Z,95.10
2024-02-07T06:33:00.881Z,94.74
2024-02-07T06:35:27.536Z,94.73
2024-02-07T06:37:54.187Z,94.61
2024-02-07T06:40:20.766Z,94.62
2024-02-07T06:42:47.344Z,95.13
2024-02-07T06:45:14.085Z,95.43
2024-02-07T06:47:40.999Z,95.45
2024-02-07T06:50:07.801Z,95.67
2024-02-07T06:52:34.517Z,95.49
2024-02-07T06:55:00.978Z,95.65
2024-02-07T06:57:27.472Z,95.65
2024-02-07T06:59:54.010Z,95.64
2024-02-07T07:02:20.633Z,95.78
2024-02-07T07:04:47.224Z,95.51
2024-02-07T07:07:13.794Z,95.64
2024-02-07T07:09:40.292Z,95.90
2024-02-07T07:12:06.996Z,95.61
2024-02-07T07:14:33.545Z,96.29
2024-02-07T07:17:00.114Z,96.63
2024-02-07T07:19:26.704Z,96.75
2024-02-07T07:21:53.243Z,95.96
2024-02-07T07:24:19.732Z,95.68
2024-02-07T07:26:47.171Z,96.13
2024-02-07T07:29:13.700Z,95.87
2024-02-07T07:31:40.249Z,95.90
2024-02-07T07:34:06.957Z,96.16
2024-02-07T07:36:33.649Z,96.19
2024-02-07T07:39:00.172Z,95.90
2024-02-07T07:41:26.693Z,96.22
2024-02-07T07:43:54.280Z,96.17
2024-02-07T07:46:21.312Z,96.02
2024-02-07T07:48:47.942Z,95.98
2024-02-07T07:51:20.528Z,96.24
2024-02-07T07:53:48.015Z,96.29
2024-02-07T07:56:14.985Z,96.22
2024-02-07T07:58:48.930Z,96.29
2024-02-07T08:01:24.073Z,96.39
2024-02-07T08:03:54.213Z,96.07
2024-02-07T08:06:22.361Z,96.27
2024-02-07T08:08:49.064Z,96.29
2024-02-07T08:11:15.935Z,95.82
2024-02-07T08:13:42.559Z,96.37
2024-02-07T08:16:09.200Z,96.05
2024-02-07T08:18:36.285Z,96.14
2024-02-07T08:21:03.759Z,96.17
2024-02-07T08:23:30.458Z,96.10
2024-02-07T08:25:57.267Z,95.95
2024-02-07T08:28:23.896Z,95.48
2024-02-07T08:30:50.425Z,96.22
2024-02-07T08:33:17.126Z,96.15
2024-02-07T08:35:43.909Z,96.51
2024-02-07T08:38:10.543Z,96.11
2024-02-07T08:40:37.437Z,96.36
2024-02-07T08:43:07.679Z,96.07
2024-02-07T08:45:35.441Z,96.41
2024-02-07T08:48:02.038Z,96.37
2024-02-07T08:50:28.650Z,96.44
2024-02-07T08:52:55.232Z,96.08
2024-02-07T08:55:21.761Z,96.04
2024-02-07T08:57:48.398Z,96.28
2024-02-07T09:00:15.338Z,96.34
2024-02-07T09:02:41.908Z,96.39
2024-02-07T09:05:08.675Z,96.25
2024-02-07T09:07:35.957Z,96.21
2024-02-07T09:10:02.637Z,96.46
2024-02-07T09:12:29.391Z,96.14
2024-02-07T09:14:58.733Z,96.70
2024-02-07T09:17:25.377Z,96.52
2024-02-07T09:19:52.318Z,95.99
2024-02-07T09:22:19.148Z,96.42
2024-02-07T09:24:45.891Z,96.10
2024-02-07T09:27:12.805Z,96.56
2024-02-07T09:29:39.366Z,96.12
2024-02-07T09:32:06.212Z,96.37
2024-02-07T09:34:32.917Z,96.36
2024-02-07T09:36:59.497Z,96.51
2024-02-07T09:39:25.991Z,96.50
2024-02-07T09:41:55.342Z,96.45
2024-02-07T09:44:23.387Z,96.67
2024-02-07T09:46:54.974Z,96.34
2024-02-07T09:49:25.832Z,96.90
2024-02-07T09:51:53.297Z,96.38
2024-02-07T09:54:20.380Z,96.75
2024-02-07T09:56:47.751Z,96.84
2024-02-07T09:59:17.018Z,96.44
2024-02-07T10:01:47.943Z,96.60
2024-02-07T10:04:24.124Z,96.55
2024-02-07T10:06:53.628Z,96.87
2024-02-07T10:09:20.406Z,96.83
2024-02-07T10:11:47.003Z,97.04
2024-02-07T10:14:14.030Z,96.64
2024-02-07T10:16:40.881Z,97.07
2024-02-07T10:19:07.441Z,96.65
2024-02-07T10:21:37.648Z,96.79
2024-02-07T10:24:04.656Z,96.96
2024-02-07T10:26:31.754Z,96.24
2024-02-07T10:29:02.912Z,96.69
2024-02-07T10:31:29.747Z,96.89
2024-02-07T10:34:00.513Z,96.79
2024-02-07T10:36:27.507Z,96.99
2024-02-07T10:39:02.764Z,96.99
2024-02-07T10:41:30.215Z,96.63
2024-02-07T10:44:10.913Z,96.52
2024-02-07T10:46:40.002Z,95.90
2024-02-07T10:49:10.699Z,95.63
2024-02-07T10:51:37.713Z,96.29
2024-02-07T10:54:08.706Z,96.38
2024-02-07T10:56:37.246Z,96.18
2024-02-07T10:59:05.506Z,96.20
2024-02-07T11:01:33.782Z,96.29
2024-02-07T11:04:01.470Z,95.84
2024-02-07T11:06:29.078Z,96.49
2024-02-07T11:08:57.976Z,96.47
2024-02-07T11:11:29.221Z,96.17
2024-02-07T11:13:58.661Z,96.23
2024-02-07T11:16:26.527Z,96.50
2024-02-07T11:18:55.554Z,96.15
2024-02-07T11:21:26.693Z,96.38
2024-02-07T11:23:54.666Z,96.04
2024-02-07T11:26:22.759Z,96.67
2024-02-07T11:28:49.688Z,96.25
2024-02-07T11:31:20.231Z,96.56
2024-02-07T11:33:53.031Z,96.45
2024-02-07T11:36:21.319Z,96.61
2024-02-07T11:38:59.572Z,96.64
2024-02-07T11:41:26.502Z,96.87
2024-02-07T11:43:56.782Z,96.57
2024-02-07T11:46:24.353Z,96.34
2024-02-07T11:48:55.332Z,95.86
2024-02-07T11:51:25.853Z,95.77
2024-02-07T11:53:59.529Z,96.35
2024-02-07T11:56:27.375Z,96.57
2024-02-07T11:58:55.083Z,96.97
2024-02-07T12:01:28.976Z,97.15
2024-02-07T12:03:59.088Z,96.59
2024-02-07T12:06:26.029Z,96.70
2024-02-07T12:08:53.824Z,96.35
2024-02-07T12:11:20.601Z,96.44
2024-02-07T12:13:47.241Z,96.02
2024-02-07T12:16:17.669Z,95.87
2024-02-07T12:18:45.609Z,95.70
2024-02-07T12:21:12.560Z,95.82
2024-02-07T12:23:39.328Z,96.39
2024-02-07T12:26:05.998Z,96.42
2024-02-07T12:28:32.748Z,96.16
2024-02-07T12:31:00.922Z,95.79
2024-02-07T12:33:28.794Z,96.07
2024-02-07T12:36:00.929Z,96.10
2024-02-07T12:38:27.821Z,95.48
2024-02-07T12:40:56.632Z,95.55
2024-02-07T12:43:26.033Z,95.49
2024-02-07T12:45:55.512Z,94.72
2024-02-07T12:48:26.428Z,94.31
2024-02-07T12:50:54.904Z,94.21
2024-02-07T12:53:22.278Z,93.79
2024-02-07T12:55:50.036Z,94.09
2024-02-07T12:58:17.583Z,94.27
2024-02-07T13:00:44.397Z,93.86
2024-02-07T13:03:11.568Z,93.81
2024-02-07T13:05:39.866Z,93.67
2024-02-07T13:08:10.601Z,93.84
2024-02-07T13:10:39.339Z,93.68
2024-02-07T13:13:06.994Z,93.62
2024-02-07T13:15:33.675Z,93.40
2024-02-07T13:18:00.463Z,93.18
2024-02-07T13:20:27.128Z,93.31
2024-02-07T13:22:53.891Z,92.89
2024-02-07T13:25:22.814Z,92.94
2024-02-07T13:27:49.509Z,93.03
2024-02-07T13:30:17.627Z,92.78
2024-02-07T13:32:46.564Z,92.86
2024-02-07T13:35:13.331Z,92.25
2024-02-07T13:37:39.950Z,92.21
2024-02-07T13:40:07.309Z,92.35
2024-02-07T13:42:33.810Z,92.31
2024-02-07T13:45:00.276Z,92.33
2024-02-07T13:47:26.838Z,92.08
2024-02-07T13:49:53.521Z,92.12
2024-02-07T13:52:20.242Z,91.94
2024-02-07T13:54:46.703Z,91.57
2024-02-07T13:57:13.192Z,91.53
2024-02-07T13:59:39.736Z,91.69
2024-02-07T14:02:06.542Z,91.57
2024-02-07T14:04:33.164Z,91.79
2024-02-07T14:06:59.871Z,91.92
2024-02-07T14:09:26.476Z,91.70
2024-02-07T14:11:53.034Z,91.72
2024-02-07T14:14:19.607Z,91.67
2024-02-07T14:16:46.238Z,91.98
2024-02-07T14:19:12.820Z,91.71
2024-02-07T14:21:39.416Z,91.54
2024-02-07T14:24:06.778Z,91.17
2024-02-07T14:26:33.454Z,92.00
2024-02-07T14:29:00.223Z,91.46
2024-02-07T14:31:27.004Z,91.49
2024-02-07T14:33:53.640Z,92.05
2024-02-07T14:36:20.739Z,91.43
2024-02-07T14:38:47.300Z,91.51
2024-02-07T14:41:13.844Z,91.48
2024-02-07T14:43:41.021Z,91.89
2024-02-07T14:46:07.562Z,91.61
2024-02-07T14:48:34.443Z,92.30
2024-02-07T14:51:01.232Z,92.31
2024-02-07T14:53:27.698Z,92.57
2024-02-07T14:55:59.887Z,91.88
2024-02-07T14:58:28.100Z,92.46
2024-02-07T15:00:55.014Z,91.94
2024-02-07T15:03:21.965Z,91.50
2024-02-07T15:05:48.548Z,91.97
2024-02-07T15:08:16.132Z,91.40
2024-02-07T15:10:43.397Z,91.51
2024-02-07T15:13:10.071Z,91.84
2024-02-07T15:15:38.292Z,91.83
2024-02-07T15:18:06.416Z,91.62
2024-02-07T15:20:33.014Z,92.23
2024-02-07T15:22:59.815Z,91.74
2024-02-07T15:25:26.448Z,92.19
2024-02-07T15:27:53.276Z,91.84
2024-02-07T15:30:19.865Z,92.61
2024-02-07T15:32:46.540Z,92.26
2024-02-07T15:35:14.622Z,91.92
2024-02-07T15:37:42.087Z,92.65
2024-02-07T15:40:09.590Z,92.11
2024-02-07T15:42:36.381Z,92.22
2024-02-07T15:45:02.984Z,92.33
2024-02-07T15:47:29.684Z,92.61
2024-02-07T15:49:56.261Z,92.41
2024-02-07T15:52:22.846Z,92.95
2024-02-07T15:54:49.488Z,92.68
2024-02-07T15:57:16.021Z,92.53
2024-02-07T15:59:42.650Z,92.92
2024-02-07T16:02:09.263Z,92.80
2024-02-07T16:04:36.369Z,93.04
2024-02-07T16:07:02.980Z,92.86
2024-02-07T16:09:29.500Z,90.98
2024-02-07T16:11:56.418Z,89.85
2024-02-07T16:14:23.017Z,89.96
2024-02-07T16:16:49.636Z,90.32
2024-02-07T16:19:16.819Z,89.42
2024-02-07T16:21:43.622Z,88.29
2024-02-07T16:24:10.726Z,87.21
2024-02-07T16:26:37.225Z,87.78
2024-02-07T16:29:04.343Z,88.22
2024-02-07T16:31:31.018Z,88.94
2024-02-07T16:33:57.644Z,89.43
2024-02-07T16:36:24.245Z,89.46
2024-02-07T16:38:50.811Z,89.82
2024-02-07T16:41:17.354Z,90.06
2024-02-07T16:43:45.256Z,90.02
2024-02-07T16:46:12.185Z,90.36
2024-02-07T16:48:38.835Z,90.48
2024-02-07T16:51:05.540Z,90.29
2024-02-07T16:53:33.170Z,90.77
2024-02-07T16:55:59.936Z,90.77
2024-02-07T16:58:26.503Z,90.74
2024-02-07T17:00:53.003Z,91.12
2024-02-07T17:03:19.634Z,91.00
2024-02-07T17:05:46.219Z,90.83
2024-02-07T17:08:12.821Z,90.82
2024-02-07T17:10:43.132Z,91.26
2024-02-07T17:13:10.156Z,91.21
2024-02-07T17:15:38.978Z,91.10
2024-02-07T17:18:05.976Z,91.14
2024-02-07T17:20:32.653Z,91.30
2024-02-07T17:22:59.375Z,91.75
2024-02-07T17:25:26.109Z,91.58
2024-02-07T17:27:52.708Z,91.23
2024-02-07T17:30:25.161Z,91.52
2024-02-07T17:33:00.776Z,91.61
2024-02-07T17:35:27.604Z,91.94
2024-02-07T17:37:54.904Z,91.97
2024-02-07T17:40:22.083Z,91.73
2024-02-07T17:42:48.760Z,92.21
2024-02-07T17:45:18.299Z,91.81
2024-02-07T17:47:49.072Z,92.28
2024-02-07T17:50:16.580Z,92.06
2024-02-07T17:52:43.419Z,91.85
2024-02-07T17:55:10.267Z,92.04
2024-02-07T17:57:36.778Z,91.93
2024-02-07T18:00:04.483Z,91.81
2024-02-07T18:02:31.036Z,92.13
2024-02-07T18:04:57.572Z,91.90
2024-02-07T18:07:24.177Z,91.84
2024-02-07T18:09:52.608Z,92.32
2024-02-07T18:12:19.035Z,92.10
2024-02-07T18:14:48.045Z,92.38
2024-02-07T18:17:14.903Z,92.18
2024-02-07T18:19:43.954Z,92.03
2024-02-07T18:22:13.188Z,91.95
2024-02-07T18:24:40.329Z,92.10
2024-02-07T18:27:06.977Z,91.80
2024-02-07T18:29:33.489Z,91.91
2024-02-07T18:32:00.669Z,92.19
2024-02-07T18:34:27.646Z,92.49
2024-02-07T18:36:54.707Z,92.40
2024-02-07T18:39:28.561Z,92.10
2024-02-07T18:41:55.907Z,92.27
2024-02-07T18:44:22.969Z,92.09
2024-02-07T18:46:50.715Z,92.39
2024-02-07T18:49:17.843Z,91.59
2024-02-07T18:51:44.484Z,92.13
2024-02-07T18:54:11.011Z,92.11
2024-02-07T18:56:37.470Z,92.19
2024-02-07T18:59:04.240Z,92.24
2024-02-07T19:01:31.118Z,91.98
2024-02-07T19:03:57.761Z,91.96
2024-02-07T19:06:24.531Z,92.04
2024-02-07T19:08:52.928Z,91.91
2024-02-07T19:11:19.827Z,92.08
2024-02-07T19:13:46.433Z,92.00
2024-02-07T19:16:12.975Z,91.82
2024-02-07T19:18:39.742Z,92.17
2024-02-07T19:21:06.481Z,92.15
2024-02-07T19:23:33.058Z,91.96
2024-02-07T19:25:59.797Z,92.23
2024-02-07T19:28:26.443Z,92.04
2024-02-07T19:30:52.988Z,91.68
2024-02-07T19:33:19.479Z,91.72
2024-02-07T19:35:46.025Z,91.77
2024-02-07T19:38:14.094Z,92.14
2024-02-07T19:40:42.105Z,91.84
2024-02-07T19:43:08.675Z,91.82
2024-02-07T19:45:35.391Z,91.88
2024-02-07T19:48:02.059Z,91.94
2024-02-07T19:50:28.635Z,91.59
2024-02-07T19:52:55.305Z,91.94
2024-02-07T19:55:22.051Z,91.87
2024-02-07T19:57:48.672Z,91.73
2024-02-07T20:00:15.584Z,91.41
2024-02-07T20:02:50.717Z,91.69
2024-02-07T20:05:19.727Z,91.94
2024-02-07T20:07:46.729Z,91.98
2024-02-07T20:10:13.417Z,91.84
2024-02-07T20:12:39.982Z,92.03
2024-02-07T20:15:07.083Z,91.79
2024-02-07T20:17:34.256Z,91.48
2024-02-07T20:20:01.187Z,91.64
2024-02-07T20:22:27.800Z,92.12
2024-02-07T20:24:54.308Z,91.67
2024-02-07T20:27:21.231Z,91.67
2024-02-07T20:29:48.289Z,92.06
2024-02-07T20:32:15.184Z,91.86
2024-02-07T20:34:42.142Z,91.85
2024-02-07T20:37:08.921Z,91.70
2024-02-07T20:39:35.719Z,92.01
2024-02-07T20:42:02.328Z,91.64
2024-02-07T20:44:29.490Z,91.49
2024-02-07T20:46:56.199Z,91.02
2024-02-07T20:49:22.933Z,91.46
2024-02-07T20:51:49.615Z,91.19
2024-02-07T20:54:16.171Z,91.32
2024-02-07T20:56:43.858Z,91.01
2024-02-07T20:59:10.876Z,91.13
2024-02-07T21:01:37.631Z,90.84
2024-02-07T21:04:04.398Z,90.88
2024-02-07T21:06:31.403Z,90.83
2024-02-07T21:08:58.421Z,91.31
2024-02-07T21:11:25.615Z,90.82
2024-02-07T21:13:52.361Z,91.67
2024-02-07T21:16:19.211Z,91.67
2024-02-07T21:18:45.821Z,91.21
2024-02-07T21:21:16.527Z,91.46
2024-02-07T21:23:43.542Z,91.60
2024-02-07T21:26:11.434Z,91.75
2024-02-07T21:28:40.779Z,91.46
2024-02-07T21:31:07.304Z,91.09
2024-02-07T21:36:09.065Z,91.19
2024-02-07T21:38:35.589Z,91.39
2024-02-07T21:41:02.288Z,91.17
2024-02-07T21:43:28.814Z,91.24
2024-02-07T21:45:55.397Z,91.23
2024-02-07T21:48:23.666Z,91.66
2024-02-07T21:50:50.193Z,91.00
2024-02-07T21:53:17.259Z,91.35
2024-02-07T22:01:07.793Z,91.67
2024-02-07T22:03:36.786Z,91.10
2024-02-07T22:11:52.837Z,91.45
2024-02-07T22:14:27.562Z,91.15
2024-02-07T22:17:02.667Z,91.08
2024-02-07T22:24:57.627Z,90.47
2024-02-07T22:27:29.853Z,90.86
2024-02-07T22:35:26.763Z,90.18
2024-02-07T22:48:47.587Z,90.23
2024-02-07T22:51:17.788Z,90.32
2024-02-07T22:53:44.357Z,90.24
2024-02-07T22:56:11.295Z,90.05
2024-02-07T22:58:38.138Z,89.72
2024-02-07T23:01:05.162Z,90.37
2024-02-07T23:03:33.723Z,90.19
2024-02-07T23:06:03.056Z,90.19
2024-02-07T23:08:30.787Z,89.57
2024-02-07T23:10:58.738Z,89.79
2024-02-07T23:13:26.834Z,89.76
2024-02-07T23:18:43.789Z,89.95
2024-02-07T23:29:18.180Z,89.60
2024-02-07T23:37:14.684Z,89.45
